sensor_id;sensor_type;location;lat;lon;timestamp;P1;durP1;ratioP1;P2;durP2;ratioP2
23390;SDS011;11868;45.606;5.302;2023-08-01T00:00:43;4.25;;;3.03;;
23390;SDS011;11868;45.606;5.302;2023-08-01T00:03:08;5.32;;;3.90;;
23390;SDS011;11868;45.606;5.302;2023-08-01T00:05:33;8.70;;;3.95;;
23390;SDS011;11868;45.606;5.302;2023-08-01T00:07:58;6.78;;;4.18;;
23390;SDS011;11868;45.606;5.302;2023-08-01T00:10:24;7.95;;;4.13;;
23390;SDS011;11868;45.606;5.302;2023-08-01T00:12:49;5.68;;;3.70;;
23390;SDS011;11868;45.606;5.302;2023-08-01T00:15:14;6.22;;;4.15;;
23390;SDS011;11868;45.606;5.302;2023-08-01T00:17:40;6.20;;;4.22;;
23390;SDS011;11868;45.606;5.302;2023-08-01T00:20:06;7.25;;;3.85;;
23390;SDS011;11868;45.606;5.302;2023-08-01T00:22:32;6.95;;;3.60;;
23390;SDS011;11868;45.606;5.302;2023-08-01T00:24:57;5.45;;;3.60;;
23390;SDS011;11868;45.606;5.302;2023-08-01T00:27:22;5.82;;;3.33;;
23390;SDS011;11868;45.606;5.302;2023-08-01T00:29:49;6.85;;;4.10;;
23390;SDS011;11868;45.606;5.302;2023-08-01T00:32:14;6.93;;;4.40;;
23390;SDS011;11868;45.606;5.302;2023-08-01T00:34:39;5.68;;;3.83;;
23390;SDS011;11868;45.606;5.302;2023-08-01T00:37:05;5.60;;;3.35;;
23390;SDS011;11868;45.606;5.302;2023-08-01T00:39:30;7.93;;;3.75;;
23390;SDS011;11868;45.606;5.302;2023-08-01T00:41:55;7.57;;;4.13;;
23390;SDS011;11868;45.606;5.302;2023-08-01T00:44:21;7.22;;;4.20;;
23390;SDS011;11868;45.606;5.302;2023-08-01T00:46:46;9.15;;;4.10;;
23390;SDS011;11868;45.606;5.302;2023-08-01T00:49:12;5.25;;;3.58;;
23390;SDS011;11868;45.606;5.302;2023-08-01T00:51:38;6.80;;;3.90;;
23390;SDS011;11868;45.606;5.302;2023-08-01T00:54:03;7.47;;;3.70;;
23390;SDS011;11868;45.606;5.302;2023-08-01T00:56:29;7.47;;;4.10;;
23390;SDS011;11868;45.606;5.302;2023-08-01T00:58:54;5.97;;;4.15;;
23390;SDS011;11868;45.606;5.302;2023-08-01T01:01:19;8.52;;;4.07;;
23390;SDS011;11868;45.606;5.302;2023-08-01T01:03:45;7.63;;;4.30;;
23390;SDS011;11868;45.606;5.302;2023-08-01T01:08:40;13.48;;;4.35;;
23390;SDS011;11868;45.606;5.302;2023-08-01T01:11:06;6.72;;;4.30;;
23390;SDS011;11868;45.606;5.302;2023-08-01T01:13:33;6.07;;;3.80;;
23390;SDS011;11868;45.606;5.302;2023-08-01T01:15:58;8.27;;;3.65;;
23390;SDS011;11868;45.606;5.302;2023-08-01T01:18:24;6.20;;;4.20;;
23390;SDS011;11868;45.606;5.302;2023-08-01T01:20:49;10.13;;;4.38;;
23390;SDS011;11868;45.606;5.302;2023-08-01T01:23:14;7.00;;;4.15;;
23390;SDS011;11868;45.606;5.302;2023-08-01T01:25:40;8.45;;;4.40;;
23390;SDS011;11868;45.606;5.302;2023-08-01T01:28:06;9.32;;;4.00;;
23390;SDS011;11868;45.606;5.302;2023-08-01T01:30:32;7.43;;;4.00;;
23390;SDS011;11868;45.606;5.302;2023-08-01T01:32:59;5.18;;;3.63;;
23390;SDS011;11868;45.606;5.302;2023-08-01T01:35:25;7.47;;;4.22;;
23390;SDS011;11868;45.606;5.302;2023-08-01T01:37:50;5.60;;;4.13;;
23390;SDS011;11868;45.606;5.302;2023-08-01T01:40:16;7.53;;;4.03;;
23390;SDS011;11868;45.606;5.302;2023-08-01T01:42:41;6.47;;;4.40;;
23390;SDS011;11868;45.606;5.302;2023-08-01T01:45:06;12.13;;;3.78;;
23390;SDS011;11868;45.606;5.302;2023-08-01T01:47:32;6.60;;;3.78;;
23390;SDS011;11868;45.606;5.302;2023-08-01T01:49:57;7.43;;;3.92;;
23390;SDS011;11868;45.606;5.302;2023-08-01T01:52:23;7.82;;;3.88;;
23390;SDS011;11868;45.606;5.302;2023-08-01T01:54:48;6.45;;;3.85;;
23390;SDS011;11868;45.606;5.302;2023-08-01T01:57:14;7.15;;;3.42;;
23390;SDS011;11868;45.606;5.302;2023-08-01T01:59:39;7.53;;;4.00;;
23390;SDS011;11868;45.606;5.302;2023-08-01T02:02:04;7.00;;;3.58;;
23390;SDS011;11868;45.606;5.302;2023-08-01T02:04:30;5.97;;;3.58;;
23390;SDS011;11868;45.606;5.302;2023-08-01T02:06:55;8.90;;;4.30;;
23390;SDS011;11868;45.606;5.302;2023-08-01T02:09:21;7.47;;;3.97;;
23390;SDS011;11868;45.606;5.302;2023-08-01T02:11:46;5.80;;;3.80;;
23390;SDS011;11868;45.606;5.302;2023-08-01T02:14:12;6.13;;;3.92;;
23390;SDS011;11868;45.606;5.302;2023-08-01T02:16:38;7.10;;;4.35;;
23390;SDS011;11868;45.606;5.302;2023-08-01T02:19:03;8.63;;;4.40;;
23390;SDS011;11868;45.606;5.302;2023-08-01T02:21:29;6.00;;;3.95;;
23390;SDS011;11868;45.606;5.302;2023-08-01T02:23:54;5.43;;;3.90;;
23390;SDS011;11868;45.606;5.302;2023-08-01T02:26:19;6.07;;;3.53;;
23390;SDS011;11868;45.606;5.302;2023-08-01T02:28:47;6.97;;;4.10;;
23390;SDS011;11868;45.606;5.302;2023-08-01T02:31:12;9.18;;;3.83;;
23390;SDS011;11868;45.606;5.302;2023-08-01T02:33:38;9.45;;;4.10;;
23390;SDS011;11868;45.606;5.302;2023-08-01T02:36:03;6.22;;;4.15;;
23390;SDS011;11868;45.606;5.302;2023-08-01T02:38:29;5.72;;;3.83;;
23390;SDS011;11868;45.606;5.302;2023-08-01T02:40:54;7.45;;;3.95;;
23390;SDS011;11868;45.606;5.302;2023-08-01T02:43:19;7.45;;;4.10;;
23390;SDS011;11868;45.606;5.302;2023-08-01T02:45:45;6.45;;;4.00;;
23390;SDS011;11868;45.606;5.302;2023-08-01T02:48:10;7.30;;;4.20;;
23390;SDS011;11868;45.606;5.302;2023-08-01T02:50:36;7.55;;;4.28;;
23390;SDS011;11868;45.606;5.302;2023-08-01T02:53:01;6.88;;;4.18;;
23390;SDS011;11868;45.606;5.302;2023-08-01T02:55:26;8.77;;;4.38;;
23390;SDS011;11868;45.606;5.302;2023-08-01T02:57:52;8.57;;;4.53;;
23390;SDS011;11868;45.606;5.302;2023-08-01T03:00:17;7.32;;;3.92;;
23390;SDS011;11868;45.606;5.302;2023-08-01T03:02:43;8.30;;;4.32;;
23390;SDS011;11868;45.606;5.302;2023-08-01T03:05:08;6.43;;;4.05;;
23390;SDS011;11868;45.606;5.302;2023-08-01T03:07:34;7.32;;;4.38;;
23390;SDS011;11868;45.606;5.302;2023-08-01T03:10:00;8.18;;;4.60;;
23390;SDS011;11868;45.606;5.302;2023-08-01T03:12:25;7.88;;;3.78;;
23390;SDS011;11868;45.606;5.302;2023-08-01T03:14:50;7.93;;;4.40;;
23390;SDS011;11868;45.606;5.302;2023-08-01T03:17:16;5.40;;;3.85;;
23390;SDS011;11868;45.606;5.302;2023-08-01T03:19:41;7.90;;;4.50;;
23390;SDS011;11868;45.606;5.302;2023-08-01T03:22:07;7.68;;;4.07;;
23390;SDS011;11868;45.606;5.302;2023-08-01T03:24:33;7.10;;;3.80;;
23390;SDS011;11868;45.606;5.302;2023-08-01T03:26:58;7.00;;;4.20;;
23390;SDS011;11868;45.606;5.302;2023-08-01T03:29:23;5.30;;;3.60;;
23390;SDS011;11868;45.606;5.302;2023-08-01T03:31:49;5.47;;;3.97;;
23390;SDS011;11868;45.606;5.302;2023-08-01T03:34:14;6.93;;;4.82;;
23390;SDS011;11868;45.606;5.302;2023-08-01T03:36:39;13.27;;;4.63;;
23390;SDS011;11868;45.606;5.302;2023-08-01T03:39:05;9.02;;;4.80;;
23390;SDS011;11868;45.606;5.302;2023-08-01T03:41:31;5.57;;;4.20;;
23390;SDS011;11868;45.606;5.302;2023-08-01T03:43:56;6.95;;;4.47;;
23390;SDS011;11868;45.606;5.302;2023-08-01T03:46:22;7.53;;;4.60;;
23390;SDS011;11868;45.606;5.302;2023-08-01T03:48:47;7.53;;;4.88;;
23390;SDS011;11868;45.606;5.302;2023-08-01T03:51:12;8.13;;;4.72;;
23390;SDS011;11868;45.606;5.302;2023-08-01T03:53:40;10.05;;;4.90;;
23390;SDS011;11868;45.606;5.302;2023-08-01T03:56:06;6.90;;;4.65;;
23390;SDS011;11868;45.606;5.302;2023-08-01T03:58:32;7.32;;;4.40;;
23390;SDS011;11868;45.606;5.302;2023-08-01T04:00:57;8.68;;;4.28;;
23390;SDS011;11868;45.606;5.302;2023-08-01T04:03:22;9.57;;;4.80;;
23390;SDS011;11868;45.606;5.302;2023-08-01T04:05:48;10.48;;;4.60;;
23390;SDS011;11868;45.606;5.302;2023-08-01T04:08:13;6.72;;;4.28;;
23390;SDS011;11868;45.606;5.302;2023-08-01T04:10:38;7.00;;;4.53;;
23390;SDS011;11868;45.606;5.302;2023-08-01T04:13:04;9.55;;;5.03;;
23390;SDS011;11868;45.606;5.302;2023-08-01T04:15:29;6.15;;;4.15;;
23390;SDS011;11868;45.606;5.302;2023-08-01T04:17:55;6.78;;;4.18;;
23390;SDS011;11868;45.606;5.302;2023-08-01T04:20:20;7.07;;;4.53;;
23390;SDS011;11868;45.606;5.302;2023-08-01T04:22:46;8.40;;;4.30;;
23390;SDS011;11868;45.606;5.302;2023-08-01T04:25:11;8.38;;;4.10;;
23390;SDS011;11868;45.606;5.302;2023-08-01T04:27:36;8.15;;;4.57;;
23390;SDS011;11868;45.606;5.302;2023-08-01T04:30:02;9.82;;;4.43;;
23390;SDS011;11868;45.606;5.302;2023-08-01T04:32:27;6.57;;;4.65;;
23390;SDS011;11868;45.606;5.302;2023-08-01T04:34:53;6.97;;;4.65;;
23390;SDS011;11868;45.606;5.302;2023-08-01T04:37:18;7.25;;;4.25;;
23390;SDS011;11868;45.606;5.302;2023-08-01T04:39:47;6.50;;;4.22;;
23390;SDS011;11868;45.606;5.302;2023-08-01T04:42:12;10.52;;;4.70;;
23390;SDS011;11868;45.606;5.302;2023-08-01T04:44:38;7.05;;;4.38;;
23390;SDS011;11868;45.606;5.302;2023-08-01T04:47:04;6.40;;;4.32;;
23390;SDS011;11868;45.606;5.302;2023-08-01T04:49:29;6.00;;;4.10;;
23390;SDS011;11868;45.606;5.302;2023-08-01T04:51:55;6.60;;;4.53;;
23390;SDS011;11868;45.606;5.302;2023-08-01T04:54:20;5.78;;;4.32;;
23390;SDS011;11868;45.606;5.302;2023-08-01T04:56:46;8.13;;;4.65;;
23390;SDS011;11868;45.606;5.302;2023-08-01T04:59:11;7.45;;;4.40;;
23390;SDS011;11868;45.606;5.302;2023-08-01T05:01:36;7.07;;;4.13;;
23390;SDS011;11868;45.606;5.302;2023-08-01T05:04:02;6.97;;;4.53;;
23390;SDS011;11868;45.606;5.302;2023-08-01T05:06:27;8.30;;;4.75;;
23390;SDS011;11868;45.606;5.302;2023-08-01T05:08:55;7.45;;;4.63;;
23390;SDS011;11868;45.606;5.302;2023-08-01T05:11:20;10.50;;;4.65;;
23390;SDS011;11868;45.606;5.302;2023-08-01T05:13:46;10.70;;;5.25;;
23390;SDS011;11868;45.606;5.302;2023-08-01T05:16:11;8.50;;;4.40;;
23390;SDS011;11868;45.606;5.302;2023-08-01T05:18:37;6.15;;;4.15;;
23390;SDS011;11868;45.606;5.302;2023-08-01T05:21:02;7.07;;;4.53;;
23390;SDS011;11868;45.606;5.302;2023-08-01T05:23:28;5.88;;;3.95;;
23390;SDS011;11868;45.606;5.302;2023-08-01T05:25:53;8.85;;;4.82;;
23390;SDS011;11868;45.606;5.302;2023-08-01T05:28:18;8.38;;;4.80;;
23390;SDS011;11868;45.606;5.302;2023-08-01T05:30:44;8.38;;;4.68;;
23390;SDS011;11868;45.606;5.302;2023-08-01T05:33:10;8.80;;;4.22;;
23390;SDS011;11868;45.606;5.302;2023-08-01T05:35:35;6.97;;;4.30;;
23390;SDS011;11868;45.606;5.302;2023-08-01T05:38:00;6.30;;;4.38;;
23390;SDS011;11868;45.606;5.302;2023-08-01T05:40:26;8.57;;;4.93;;
23390;SDS011;11868;45.606;5.302;2023-08-01T05:42:51;7.35;;;4.30;;
23390;SDS011;11868;45.606;5.302;2023-08-01T05:45:17;6.68;;;4.57;;
23390;SDS011;11868;45.606;5.302;2023-08-01T05:47:42;7.10;;;4.40;;
23390;SDS011;11868;45.606;5.302;2023-08-01T05:50:08;6.43;;;4.53;;
23390;SDS011;11868;45.606;5.302;2023-08-01T05:52:33;6.95;;;4.15;;
23390;SDS011;11868;45.606;5.302;2023-08-01T05:54:59;10.80;;;4.90;;
23390;SDS011;11868;45.606;5.302;2023-08-01T05:57:25;7.18;;;4.60;;
23390;SDS011;11868;45.606;5.302;2023-08-01T05:59:50;8.88;;;4.40;;
23390;SDS011;11868;45.606;5.302;2023-08-01T06:02:15;8.00;;;4.30;;
23390;SDS011;11868;45.606;5.302;2023-08-01T06:04:41;9.80;;;4.43;;
23390;SDS011;11868;45.606;5.302;2023-08-01T06:07:06;7.60;;;4.68;;
23390;SDS011;11868;45.606;5.302;2023-08-01T06:09:31;6.70;;;4.50;;
23390;SDS011;11868;45.606;5.302;2023-08-01T06:11:57;7.35;;;4.10;;
23390;SDS011;11868;45.606;5.302;2023-08-01T06:14:22;7.40;;;4.22;;
23390;SDS011;11868;45.606;5.302;2023-08-01T06:16:48;6.13;;;4.75;;
23390;SDS011;11868;45.606;5.302;2023-08-01T06:19:13;7.95;;;4.53;;
23390;SDS011;11868;45.606;5.302;2023-08-01T06:21:38;9.63;;;4.50;;
23390;SDS011;11868;45.606;5.302;2023-08-01T06:24:04;9.70;;;4.63;;
23390;SDS011;11868;45.606;5.302;2023-08-01T06:26:29;9.07;;;4.45;;
23390;SDS011;11868;45.606;5.302;2023-08-01T06:28:54;6.70;;;3.60;;
23390;SDS011;11868;45.606;5.302;2023-08-01T06:31:20;6.93;;;4.40;;
23390;SDS011;11868;45.606;5.302;2023-08-01T06:33:46;8.80;;;4.45;;
23390;SDS011;11868;45.606;5.302;2023-08-01T06:36:11;7.95;;;4.45;;
23390;SDS011;11868;45.606;5.302;2023-08-01T06:38:38;10.25;;;4.82;;
23390;SDS011;11868;45.606;5.302;2023-08-01T06:41:03;7.82;;;4.43;;
23390;SDS011;11868;45.606;5.302;2023-08-01T06:43:28;8.07;;;4.43;;
23390;SDS011;11868;45.606;5.302;2023-08-01T06:45:54;6.90;;;4.30;;
23390;SDS011;11868;45.606;5.302;2023-08-01T06:48:19;8.40;;;4.35;;
23390;SDS011;11868;45.606;5.302;2023-08-01T06:50:44;10.57;;;5.13;;
23390;SDS011;11868;45.606;5.302;2023-08-01T06:53:09;8.48;;;4.15;;
23390;SDS011;11868;45.606;5.302;2023-08-01T06:55:35;7.22;;;4.07;;
23390;SDS011;11868;45.606;5.302;2023-08-01T06:58:00;11.30;;;4.45;;
23390;SDS011;11868;45.606;5.302;2023-08-01T07:00:26;9.75;;;4.55;;
23390;SDS011;11868;45.606;5.302;2023-08-01T07:02:51;9.15;;;4.30;;
23390;SDS011;11868;45.606;5.302;2023-08-01T07:05:16;5.45;;;4.05;;
23390;SDS011;11868;45.606;5.302;2023-08-01T07:07:42;6.95;;;4.05;;
23390;SDS011;11868;45.606;5.302;2023-08-01T07:10:07;10.75;;;4.25;;
23390;SDS011;11868;45.606;5.302;2023-08-01T07:12:33;7.32;;;4.30;;
23390;SDS011;11868;45.606;5.302;2023-08-01T07:14:58;7.28;;;4.55;;
23390;SDS011;11868;45.606;5.302;2023-08-01T07:17:24;7.40;;;4.13;;
23390;SDS011;11868;45.606;5.302;2023-08-01T07:19:49;8.25;;;4.00;;
23390;SDS011;11868;45.606;5.302;2023-08-01T07:22:14;7.43;;;4.68;;
23390;SDS011;11868;45.606;5.302;2023-08-01T07:24:40;5.93;;;3.90;;
23390;SDS011;11868;45.606;5.302;2023-08-01T07:27:05;7.78;;;4.25;;
23390;SDS011;11868;45.606;5.302;2023-08-01T07:29:30;10.38;;;4.85;;
23390;SDS011;11868;45.606;5.302;2023-08-01T07:31:56;9.07;;;4.22;;
23390;SDS011;11868;45.606;5.302;2023-08-01T07:34:21;8.93;;;4.47;;
23390;SDS011;11868;45.606;5.302;2023-08-01T07:36:47;7.22;;;4.38;;
23390;SDS011;11868;45.606;5.302;2023-08-01T07:39:13;8.65;;;4.00;;
23390;SDS011;11868;45.606;5.302;2023-08-01T07:41:39;8.88;;;4.70;;
23390;SDS011;11868;45.606;5.302;2023-08-01T07:44:04;7.95;;;4.18;;
23390;SDS011;11868;45.606;5.302;2023-08-01T07:46:29;6.90;;;4.28;;
23390;SDS011;11868;45.606;5.302;2023-08-01T07:48:55;6.80;;;4.22;;
23390;SDS011;11868;45.606;5.302;2023-08-01T07:51:20;6.03;;;4.22;;
23390;SDS011;11868;45.606;5.302;2023-08-01T07:53:45;7.72;;;4.28;;
23390;SDS011;11868;45.606;5.302;2023-08-01T07:56:11;9.73;;;4.20;;
23390;SDS011;11868;45.606;5.302;2023-08-01T07:58:36;6.28;;;4.25;;
23390;SDS011;11868;45.606;5.302;2023-08-01T08:01:02;7.25;;;4.35;;
23390;SDS011;11868;45.606;5.302;2023-08-01T08:03:28;6.28;;;4.30;;
23390;SDS011;11868;45.606;5.302;2023-08-01T08:05:53;6.75;;;3.83;;
23390;SDS011;11868;45.606;5.302;2023-08-01T08:08:19;8.52;;;3.97;;
23390;SDS011;11868;45.606;5.302;2023-08-01T08:10:44;9.52;;;4.30;;
23390;SDS011;11868;45.606;5.302;2023-08-01T08:13:09;6.35;;;3.97;;
23390;SDS011;11868;45.606;5.302;2023-08-01T08:15:35;5.95;;;4.32;;
23390;SDS011;11868;45.606;5.302;2023-08-01T08:18:01;8.90;;;4.30;;
23390;SDS011;11868;45.606;5.302;2023-08-01T08:20:29;6.37;;;4.13;;
23390;SDS011;11868;45.606;5.302;2023-08-01T08:22:59;7.13;;;4.35;;
23390;SDS011;11868;45.606;5.302;2023-08-01T08:25:24;7.28;;;4.28;;
23390;SDS011;11868;45.606;5.302;2023-08-01T08:27:49;8.43;;;4.20;;
23390;SDS011;11868;45.606;5.302;2023-08-01T08:30:15;8.52;;;4.35;;
23390;SDS011;11868;45.606;5.302;2023-08-01T08:32:40;9.93;;;4.50;;
23390;SDS011;11868;45.606;5.302;2023-08-01T08:35:05;7.50;;;4.18;;
23390;SDS011;11868;45.606;5.302;2023-08-01T08:37:31;7.63;;;4.10;;
23390;SDS011;11868;45.606;5.302;2023-08-01T08:39:56;10.50;;;4.50;;
23390;SDS011;11868;45.606;5.302;2023-08-01T08:42:22;7.22;;;4.25;;
23390;SDS011;11868;45.606;5.302;2023-08-01T08:44:49;6.30;;;3.72;;
23390;SDS011;11868;45.606;5.302;2023-08-01T08:47:16;8.13;;;4.60;;
23390;SDS011;11868;45.606;5.302;2023-08-01T08:49:43;13.25;;;8.93;;
23390;SDS011;11868;45.606;5.302;2023-08-01T08:52:10;16.73;;;7.82;;
23390;SDS011;11868;45.606;5.302;2023-08-01T08:54:36;10.13;;;4.80;;
23390;SDS011;11868;45.606;5.302;2023-08-01T08:57:01;8.20;;;4.72;;
23390;SDS011;11868;45.606;5.302;2023-08-01T08:59:31;6.85;;;4.28;;
23390;SDS011;11868;45.606;5.302;2023-08-01T09:01:57;9.07;;;4.82;;
23390;SDS011;11868;45.606;5.302;2023-08-01T09:04:22;10.02;;;5.95;;
23390;SDS011;11868;45.606;5.302;2023-08-01T09:06:51;10.55;;;5.97;;
23390;SDS011;11868;45.606;5.302;2023-08-01T09:09:16;6.80;;;3.80;;
23390;SDS011;11868;45.606;5.302;2023-08-01T09:11:46;4.88;;;3.22;;
23390;SDS011;11868;45.606;5.302;2023-08-01T09:14:16;6.22;;;3.40;;
23390;SDS011;11868;45.606;5.302;2023-08-01T09:16:42;7.03;;;3.08;;
23390;SDS011;11868;45.606;5.302;2023-08-01T09:19:08;4.82;;;3.35;;
23390;SDS011;11868;45.606;5.302;2023-08-01T09:21:34;5.43;;;3.40;;
23390;SDS011;11868;45.606;5.302;2023-08-01T09:24:12;6.85;;;3.10;;
23390;SDS011;11868;45.606;5.302;2023-08-01T09:26:44;6.05;;;3.42;;
23390;SDS011;11868;45.606;5.302;2023-08-01T09:29:10;4.32;;;2.83;;
23390;SDS011;11868;45.606;5.302;2023-08-01T09:31:37;9.48;;;4.32;;
23390;SDS011;11868;45.606;5.302;2023-08-01T09:34:06;10.07;;;5.97;;
23390;SDS011;11868;45.606;5.302;2023-08-01T09:36:43;13.57;;;6.68;;
23390;SDS011;11868;45.606;5.302;2023-08-01T09:39:09;5.28;;;3.25;;
23390;SDS011;11868;45.606;5.302;2023-08-01T09:41:41;4.47;;;3.00;;
23390;SDS011;11868;45.606;5.302;2023-08-01T09:44:06;3.55;;;2.55;;
23390;SDS011;11868;45.606;5.302;2023-08-01T09:46:35;6.35;;;2.45;;
23390;SDS011;11868;45.606;5.302;2023-08-01T09:49:08;4.65;;;2.80;;
23390;SDS011;11868;45.606;5.302;2023-08-01T09:51:46;3.75;;;2.50;;
23390;SDS011;11868;45.606;5.302;2023-08-01T09:54:13;2.80;;;2.10;;
23390;SDS011;11868;45.606;5.302;2023-08-01T09:56:39;3.58;;;2.30;;
23390;SDS011;11868;45.606;5.302;2023-08-01T09:59:05;2.33;;;1.83;;
23390;SDS011;11868;45.606;5.302;2023-08-01T10:01:30;3.63;;;2.40;;
23390;SDS011;11868;45.606;5.302;2023-08-01T10:03:57;2.30;;;2.00;;
23390;SDS011;11868;45.606;5.302;2023-08-01T10:06:26;4.60;;;2.30;;
23390;SDS011;11868;45.606;5.302;2023-08-01T10:08:54;2.97;;;2.40;;
23390;SDS011;11868;45.606;5.302;2023-08-01T10:11:20;4.22;;;2.50;;
23390;SDS011;11868;45.606;5.302;2023-08-01T10:13:46;4.47;;;2.60;;
23390;SDS011;11868;45.606;5.302;2023-08-01T10:16:12;3.63;;;2.33;;
23390;SDS011;11868;45.606;5.302;2023-08-01T10:18:38;3.70;;;2.40;;
23390;SDS011;11868;45.606;5.302;2023-08-01T10:21:14;7.90;;;2.55;;
23390;SDS011;11868;45.606;5.302;2023-08-01T10:23:41;2.83;;;2.15;;
23390;SDS011;11868;45.606;5.302;2023-08-01T10:26:06;4.95;;;2.10;;
23390;SDS011;11868;45.606;5.302;2023-08-01T10:28:33;3.20;;;2.13;;
23390;SDS011;11868;45.606;5.302;2023-08-01T10:31:07;5.35;;;1.88;;
23390;SDS011;11868;45.606;5.302;2023-08-01T10:33:39;4.55;;;2.00;;
23390;SDS011;11868;45.606;5.302;2023-08-01T10:36:39;4.18;;;2.08;;
23390;SDS011;11868;45.606;5.302;2023-08-01T10:38:58;3.30;;;2.13;;
23390;SDS011;11868;45.606;5.302;2023-08-01T10:43:51;4.00;;;1.90;;
23390;SDS011;11868;45.606;5.302;2023-08-01T10:46:17;3.70;;;2.40;;
23390;SDS011;11868;45.606;5.302;2023-08-01T10:48:52;3.63;;;2.00;;
23390;SDS011;11868;45.606;5.302;2023-08-01T10:51:17;4.43;;;2.10;;
23390;SDS011;11868;45.606;5.302;2023-08-01T10:53:43;4.25;;;2.35;;
23390;SDS011;11868;45.606;5.302;2023-08-01T10:56:15;3.50;;;2.10;;
23390;SDS011;11868;45.606;5.302;2023-08-01T10:58:44;6.47;;;2.03;;
23390;SDS011;11868;45.606;5.302;2023-08-01T11:01:10;2.65;;;2.10;;
23390;SDS011;11868;45.606;5.302;2023-08-01T11:03:38;3.05;;;2.00;;
23390;SDS011;11868;45.606;5.302;2023-08-01T11:06:04;3.20;;;2.00;;
23390;SDS011;11868;45.606;5.302;2023-08-01T11:08:34;6.15;;;2.33;;
23390;SDS011;11868;45.606;5.302;2023-08-01T11:11:00;2.55;;;1.80;;
23390;SDS011;11868;45.606;5.302;2023-08-01T11:13:25;4.40;;;2.00;;
23390;SDS011;11868;45.606;5.302;2023-08-01T11:15:51;3.90;;;2.20;;
23390;SDS011;11868;45.606;5.302;2023-08-01T11:18:18;4.55;;;2.40;;
23390;SDS011;11868;45.606;5.302;2023-08-01T11:20:43;3.83;;;2.20;;
23390;SDS011;11868;45.606;5.302;2023-08-01T11:23:09;3.70;;;2.17;;
23390;SDS011;11868;45.606;5.302;2023-08-01T11:25:37;3.80;;;2.22;;
23390;SDS011;11868;45.606;5.302;2023-08-01T11:28:09;4.70;;;2.40;;
23390;SDS011;11868;45.606;5.302;2023-08-01T11:30:35;2.85;;;1.75;;
23390;SDS011;11868;45.606;5.302;2023-08-01T11:33:01;5.80;;;2.60;;
23390;SDS011;11868;45.606;5.302;2023-08-01T11:35:28;3.90;;;2.50;;
23390;SDS011;11868;45.606;5.302;2023-08-01T11:37:53;3.88;;;2.30;;
23390;SDS011;11868;45.606;5.302;2023-08-01T11:40:19;3.40;;;2.38;;
23390;SDS011;11868;45.606;5.302;2023-08-01T11:42:48;5.03;;;2.33;;
23390;SDS011;11868;45.606;5.302;2023-08-01T11:45:16;5.18;;;2.40;;
23390;SDS011;11868;45.606;5.302;2023-08-01T11:47:45;3.42;;;2.50;;
23390;SDS011;11868;45.606;5.302;2023-08-01T11:50:11;2.70;;;2.15;;
23390;SDS011;11868;45.606;5.302;2023-08-01T11:52:36;6.07;;;2.20;;
23390;SDS011;11868;45.606;5.302;2023-08-01T11:55:02;2.72;;;2.00;;
23390;SDS011;11868;45.606;5.302;2023-08-01T11:57:27;3.47;;;1.90;;
23390;SDS011;11868;45.606;5.302;2023-08-01T11:59:54;3.75;;;2.25;;
23390;SDS011;11868;45.606;5.302;2023-08-01T12:02:21;3.50;;;2.10;;
23390;SDS011;11868;45.606;5.302;2023-08-01T12:04:47;2.88;;;2.13;;
23390;SDS011;11868;45.606;5.302;2023-08-01T12:07:13;3.03;;;2.10;;
23390;SDS011;11868;45.606;5.302;2023-08-01T12:09:39;3.17;;;1.88;;
23390;SDS011;11868;45.606;5.302;2023-08-01T12:12:05;5.70;;;2.42;;
23390;SDS011;11868;45.606;5.302;2023-08-01T12:14:30;3.95;;;2.30;;
23390;SDS011;11868;45.606;5.302;2023-08-01T12:16:56;2.15;;;1.80;;
23390;SDS011;11868;45.606;5.302;2023-08-01T12:19:21;4.93;;;2.00;;
23390;SDS011;11868;45.606;5.302;2023-08-01T12:21:47;3.08;;;2.22;;
23390;SDS011;11868;45.606;5.302;2023-08-01T12:24:13;4.20;;;2.20;;
23390;SDS011;11868;45.606;5.302;2023-08-01T12:26:39;5.40;;;2.22;;
23390;SDS011;11868;45.606;5.302;2023-08-01T12:29:04;4.45;;;1.90;;
23390;SDS011;11868;45.606;5.302;2023-08-01T12:31:30;4.15;;;2.30;;
23390;SDS011;11868;45.606;5.302;2023-08-01T12:33:56;6.32;;;2.13;;
23390;SDS011;11868;45.606;5.302;2023-08-01T12:36:21;4.00;;;2.10;;
23390;SDS011;11868;45.606;5.302;2023-08-01T12:38:47;2.55;;;2.15;;
23390;SDS011;11868;45.606;5.302;2023-08-01T12:41:12;4.10;;;2.15;;
23390;SDS011;11868;45.606;5.302;2023-08-01T12:43:38;3.08;;;1.98;;
23390;SDS011;11868;45.606;5.302;2023-08-01T12:46:03;3.05;;;2.00;;
23390;SDS011;11868;45.606;5.302;2023-08-01T12:48:29;4.88;;;1.77;;
23390;SDS011;11868;45.606;5.302;2023-08-01T12:50:55;5.90;;;1.60;;
23390;SDS011;11868;45.606;5.302;2023-08-01T12:53:20;2.20;;;1.80;;
23390;SDS011;11868;45.606;5.302;2023-08-01T12:55:47;2.83;;;1.70;;
23390;SDS011;11868;45.606;5.302;2023-08-01T12:58:13;5.45;;;2.13;;
23390;SDS011;11868;45.606;5.302;2023-08-01T13:00:40;4.40;;;1.60;;
23390;SDS011;11868;45.606;5.302;2023-08-01T13:03:06;2.38;;;1.52;;
23390;SDS011;11868;45.606;5.302;2023-08-01T13:05:34;2.20;;;1.67;;
23390;SDS011;11868;45.606;5.302;2023-08-01T13:08:00;2.03;;;1.42;;
23390;SDS011;11868;45.606;5.302;2023-08-01T13:10:29;1.58;;;1.40;;
23390;SDS011;11868;45.606;5.302;2023-08-01T13:12:55;2.25;;;1.27;;
23390;SDS011;11868;45.606;5.302;2023-08-01T13:15:20;7.18;;;1.60;;
23390;SDS011;11868;45.606;5.302;2023-08-01T13:17:46;1.65;;;1.38;;
23390;SDS011;11868;45.606;5.302;2023-08-01T13:20:11;5.18;;;1.55;;
23390;SDS011;11868;45.606;5.302;2023-08-01T13:22:37;2.15;;;1.60;;
23390;SDS011;11868;45.606;5.302;2023-08-01T13:25:02;4.90;;;1.60;;
23390;SDS011;11868;45.606;5.302;2023-08-01T13:27:29;1.70;;;1.40;;
23390;SDS011;11868;45.606;5.302;2023-08-01T13:29:54;2.67;;;2.10;;
23390;SDS011;11868;45.606;5.302;2023-08-01T13:32:19;3.13;;;1.67;;
23390;SDS011;11868;45.606;5.302;2023-08-01T13:34:44;3.17;;;1.52;;
23390;SDS011;11868;45.606;5.302;2023-08-01T13:37:11;5.88;;;2.00;;
23390;SDS011;11868;45.606;5.302;2023-08-01T13:39:36;3.15;;;1.50;;
23390;SDS011;11868;45.606;5.302;2023-08-01T13:42:01;1.83;;;1.45;;
23390;SDS011;11868;45.606;5.302;2023-08-01T13:44:27;3.15;;;1.85;;
23390;SDS011;11868;45.606;5.302;2023-08-01T13:46:53;2.70;;;1.55;;
23390;SDS011;11868;45.606;5.302;2023-08-01T13:49:18;2.10;;;1.90;;
23390;SDS011;11868;45.606;5.302;2023-08-01T13:51:43;2.33;;;1.40;;
23390;SDS011;11868;45.606;5.302;2023-08-01T13:54:09;3.03;;;1.40;;
23390;SDS011;11868;45.606;5.302;2023-08-01T13:56:34;2.70;;;1.58;;
23390;SDS011;11868;45.606;5.302;2023-08-01T13:58:59;4.20;;;1.92;;
23390;SDS011;11868;45.606;5.302;2023-08-01T14:01:25;2.42;;;1.48;;
23390;SDS011;11868;45.606;5.302;2023-08-01T14:03:50;1.88;;;1.52;;
23390;SDS011;11868;45.606;5.302;2023-08-01T14:06:15;3.28;;;1.80;;
23390;SDS011;11868;45.606;5.302;2023-08-01T14:08:41;2.20;;;1.55;;
23390;SDS011;11868;45.606;5.302;2023-08-01T14:11:07;1.90;;;1.60;;
23390;SDS011;11868;45.606;5.302;2023-08-01T14:13:34;4.07;;;1.50;;
23390;SDS011;11868;45.606;5.302;2023-08-01T14:16:00;1.92;;;1.65;;
23390;SDS011;11868;45.606;5.302;2023-08-01T14:18:26;4.82;;;2.03;;
23390;SDS011;11868;45.606;5.302;2023-08-01T14:20:52;2.63;;;1.65;;
23390;SDS011;11868;45.606;5.302;2023-08-01T14:23:18;3.97;;;1.73;;
23390;SDS011;11868;45.606;5.302;2023-08-01T14:25:43;2.22;;;1.60;;
23390;SDS011;11868;45.606;5.302;2023-08-01T14:28:09;2.17;;;1.60;;
23390;SDS011;11868;45.606;5.302;2023-08-01T14:30:36;2.25;;;1.67;;
23390;SDS011;11868;45.606;5.302;2023-08-01T14:33:02;2.58;;;1.70;;
23390;SDS011;11868;45.606;5.302;2023-08-01T14:35:28;2.90;;;1.50;;
23390;SDS011;11868;45.606;5.302;2023-08-01T14:37:53;2.13;;;1.65;;
23390;SDS011;11868;45.606;5.302;2023-08-01T14:40:20;7.25;;;1.70;;
23390;SDS011;11868;45.606;5.302;2023-08-01T14:42:46;2.90;;;1.80;;
23390;SDS011;11868;45.606;5.302;2023-08-01T14:45:11;1.65;;;1.50;;